Time;durP1;ratioP1;P1;durP2;ratioP2;P2;SDS_P1;SDS_P2;PMS_P1;PMS_P2;Temp;Humidity;BMP_temperature;BMP_pressure;BME280_temperature;BME280_humidity;BME280_pressure;Samples;Min_cycle;Max_cycle;Signal;HPM_P1;HPM_P2
2022/03/14 00:02:24;;;;;;;36.08;15.80;;;;;;;-3.46;52.48;99037.22;1673197;86;21051;-87
2022/03/14 00:04:51;;;;;;;28.42;13.62;;;;;;;-3.53;52.80;99026.53;1672926;86;21080;-87
2022/03/14 00:07:18;;;;;;;28.67;12.73;;;;;;;-3.62;52.94;99029.58;1672913;86;21130;-89
2022/03/14 00:09:46;;;;;;;26.75;13.78;;;;;;;-3.58;53.02;99034.98;1701054;84;21059;-88
2022/03/14 00:12:17;;;;;;;26.55;11.95;;;;;;;-3.61;52.61;99034.83;1701334;84;20977;-86
2022/03/14 00:14:41;;;;;;;24.98;12.55;;;;;;;-3.58;53.00;99038.88;1700986;84;21079;-85
2022/03/14 00:17:08;;;;;;;27.93;12.88;;;;;;;-3.60;52.89;99040.52;1701280;84;21535;-85
2022/03/14 00:19:35;;;;;;;25.32;11.90;;;;;;;-3.61;52.95;99045.20;1701332;84;21426;-86
2022/03/14 00:22:03;;;;;;;24.12;11.75;;;;;;;-3.62;52.99;99039.94;1699247;84;21005;-85
2022/03/14 00:24:34;;;;;;;25.12;12.28;;;;;;;-3.68;53.03;99043.56;1646019;87;21018;-85
2022/03/14 00:27:01;;;;;;;30.77;12.75;;;;;;;-3.68;53.11;99044.86;1645972;87;21499;-85
2022/03/14 00:29:28;;;;;;;26.85;12.45;;;;;;;-3.74;53.47;99051.55;1646069;87;21030;-85
2022/03/14 00:31:54;;;;;;;21.33;11.88;;;;;;;-3.72;53.21;99052.52;1645371;87;21035;-84
2022/03/14 00:34:21;;;;;;;26.93;13.03;;;;;;;-3.69;53.26;99061.23;1632142;88;21058;-85
2022/03/14 00:36:49;;;;;;;26.70;13.65;;;;;;;-3.69;53.39;99058.25;1632449;88;21067;-85
2022/03/14 00:39:16;;;;;;;30.68;13.83;;;;;;;-3.72;53.43;99061.98;1627728;86;21182;-85
2022/03/14 00:41:43;;;;;;;33.30;15.68;;;;;;;-3.76;53.86;99063.95;1661437;86;21042;-85
2022/03/14 00:44:12;;;;;;;33.05;15.80;;;;;;;-3.82;53.61;99067.14;1661874;86;21101;-85
2022/03/14 00:46:39;;;;;;;41.02;16.48;;;;;;;-3.80;53.90;99068.52;1662060;86;21034;-85
2022/03/14 00:49:08;;;;;;;34.20;15.72;;;;;;;-3.84;53.90;99061.02;1689793;85;21068;-86
2022/03/14 00:51:35;;;;;;;29.12;15.05;;;;;;;-3.84;54.12;99064.91;1695181;85;21001;-86
2022/03/14 00:54:03;;;;;;;36.98;15.40;;;;;;;-3.87;54.20;99062.16;1695198;85;21022;-86
2022/03/14 00:56:32;;;;;;;31.77;14.05;;;;;;;-3.88;54.78;99066.88;1694964;85;21539;-82
2022/03/14 00:59:03;;;;;;;34.50;13.13;;;;;;;-3.85;54.13;99067.03;1675020;85;21072;-87
2022/03/14 01:01:28;;;;;;;30.50;13.53;;;;;;;-3.87;54.21;99066.95;1658589;84;21478;-87
2022/03/14 01:03:55;;;;;;;27.22;12.73;;;;;;;-3.89;53.94;99067.70;1659030;86;21080;-88
2022/03/14 01:06:22;;;;;;;26.15;13.48;;;;;;;-3.90;53.84;99073.70;1658903;86;21008;-88
2022/03/14 01:08:49;;;;;;;26.40;12.63;;;;;;;-3.93;53.86;99073.55;1679507;85;21020;-88
2022/03/14 01:11:15;;;;;;;30.57;13.43;;;;;;;-3.97;54.16;99077.71;1693299;85;21072;-87
2022/03/14 01:13:44;;;;;;;30.05;13.78;;;;;;;-4.04;54.15;99076.92;1690588;85;21030;-87
2022/03/14 01:16:11;;;;;;;29.25;13.85;;;;;;;-4.08;54.10;99088.85;1689471;85;21061;-87
2022/03/14 01:18:38;;;;;;;27.95;13.70;;;;;;;-4.09;54.20;99084.89;1689718;85;21147;-87
2022/03/14 01:21:04;;;;;;;32.28;14.10;;;;;;;-4.14;54.36;99087.28;1691112;85;20962;-87
2022/03/14 01:23:32;;;;;;;31.50;14.93;;;;;;;-4.20;54.26;99082.69;1692223;85;21034;-87
2022/03/14 01:25:59;;;;;;;29.20;14.65;;;;;;;-4.27;54.44;99090.57;1689765;85;21440;-87
2022/03/14 01:28:26;;;;;;;34.13;14.47;;;;;;;-4.30;55.31;99087.86;1689562;85;21041;-88
2022/03/14 01:30:52;;;;;;;30.77;13.75;;;;;;;-4.31;55.35;99088.68;1689350;85;21026;-88
2022/03/14 01:33:19;;;;;;;32.63;14.33;;;;;;;-4.31;55.43;99083.90;1693723;84;21529;-87
2022/03/14 01:35:46;;;;;;;31.15;14.43;;;;;;;-4.30;55.37;99081.78;1664776;86;21521;-87
2022/03/14 01:38:14;;;;;;;32.58;13.38;;;;;;;-4.31;55.71;99082.61;1698354;84;21014;-88
2022/03/14 01:40:40;;;;;;;26.57;12.68;;;;;;;-4.32;56.69;99092.48;1698729;83;21509;-87
2022/03/14 01:43:07;;;;;;;28.57;13.62;;;;;;;-4.33;55.42;99092.01;1698629;84;21133;-86
2022/03/14 01:45:34;;;;;;;26.17;12.65;;;;;;;-4.42;55.11;99094.63;1698638;84;21002;-86
2022/03/14 01:48:00;;;;;;;28.55;13.48;;;;;;;-4.43;55.38;99098.43;1698480;84;21074;-85
2022/03/14 01:50:27;;;;;;;28.52;13.22;;;;;;;-4.49;55.48;99091.67;1698831;84;21051;-86
2022/03/14 01:52:53;;;;;;;30.62;13.40;;;;;;;-4.55;55.64;99097.43;1698662;84;21433;-85
2022/03/14 01:55:21;;;;;;;33.05;14.15;;;;;;;-4.57;55.48;99100.36;1698763;84;21019;-85
2022/03/14 01:57:48;;;;;;;31.00;13.43;;;;;;;-4.59;55.83;99107.14;1698455;84;21122;-85
2022/03/14 02:00:15;;;;;;;29.87;13.58;;;;;;;-4.67;55.60;99099.91;1664760;86;21446;-85
2022/03/14 02:02:43;;;;;;;31.27;12.85;;;;;;;-4.68;55.78;99107.19;1698271;84;21430;-86
2022/03/14 02:05:11;;;;;;;29.60;14.05;;;;;;;-4.68;56.01;99104.61;1664736;86;21576;-85
2022/03/14 02:07:38;;;;;;;31.05;13.30;;;;;;;-4.69;56.09;99113.58;1698262;84;21071;-86
2022/03/14 02:10:05;;;;;;;23.80;13.50;;;;;;;-4.71;56.35;99114.79;1698179;84;21478;-86
2022/03/14 02:12:32;;;;;;;27.98;14.10;;;;;;;-4.77;56.54;99123.55;1664639;86;21060;-86
2022/03/14 02:14:58;;;;;;;26.12;13.83;;;;;;;-4.79;56.45;99122.17;1698244;84;21544;-86
2022/03/14 02:17:25;;;;;;;30.85;13.38;;;;;;;-4.78;56.64;99125.63;1677983;84;21091;-87
2022/03/14 02:19:53;;;;;;;34.85;14.53;;;;;;;-4.78;56.38;99132.09;1698692;84;21005;-87
2022/03/14 02:22:20;;;;;;;34.55;14.85;;;;;;;-4.77;56.96;99131.30;1698691;84;21061;-85
2022/03/14 02:24:48;;;;;;;27.40;14.07;;;;;;;-4.79;56.96;99136.39;1698646;84;21459;-86
2022/03/14 02:27:16;;;;;;;31.73;13.90;;;;;;;-4.74;56.51;99138.33;1698233;84;21079;-86
2022/03/14 02:29:42;;;;;;;25.50;12.82;;;;;;;-4.74;56.81;99130.14;1697987;84;21072;-87
2022/03/14 02:32:13;;;;;;;35.45;14.90;;;;;;;-4.80;56.80;99136.31;1664576;86;21041;-86
2022/03/14 02:34:41;;;;;;;36.17;14.58;;;;;;;-4.82;56.84;99134.94;1688728;84;21045;-86
2022/03/14 02:37:09;;;;;;;30.43;14.73;;;;;;;-4.80;56.89;99133.72;1652567;87;21067;-86
2022/03/14 02:39:37;;;;;;;31.42;15.03;;;;;;;-4.80;58.54;99138.50;1688104;85;21067;-87
2022/03/14 02:42:07;;;;;;;31.55;14.73;;;;;;;-4.82;59.00;99138.81;1688167;85;21099;-87
2022/03/14 02:44:34;;;;;;;32.08;14.30;;;;;;;-4.86;58.28;99143.34;1656991;86;21080;-87
2022/03/14 02:47:04;;;;;;;34.43;15.35;;;;;;;-4.83;57.66;99146.48;1643102;87;21040;-87
2022/03/14 02:49:29;;;;;;;32.45;13.55;;;;;;;-4.86;57.27;99147.22;1657545;86;21415;-87
2022/03/14 02:51:56;;;;;;;25.05;12.60;;;;;;;-4.92;57.55;99150.41;1642899;87;21111;-87
2022/03/14 02:54:23;;;;;;;31.07;13.62;;;;;;;-4.99;57.65;99150.89;1657924;86;21422;-88
2022/03/14 02:56:49;;;;;;;31.17;14.63;;;;;;;-5.02;57.52;99149.46;1643005;87;21012;-87
2022/03/14 02:59:16;;;;;;;28.83;12.98;;;;;;;-5.08;58.00;99148.73;1657627;86;21061;-87
2022/03/14 03:01:42;;;;;;;29.45;14.35;;;;;;;-5.09;57.95;99153.81;1643077;87;21072;-87
2022/03/14 03:04:10;;;;;;;35.90;17.23;;;;;;;-5.10;57.83;99158.12;1658085;86;21017;-87
2022/03/14 03:06:37;;;;;;;30.35;14.07;;;;;;;-5.11;59.15;99158.90;1643274;87;21027;-87
2022/03/14 03:09:04;;;;;;;36.53;15.30;;;;;;;-5.12;58.21;99162.30;1656913;86;21028;-87
2022/03/14 03:11:32;;;;;;;36.03;16.52;;;;;;;-5.19;58.37;99165.39;1626872;87;21112;-87
2022/03/14 03:14:02;;;;;;;27.75;14.03;;;;;;;-5.20;58.79;99170.05;1623751;88;20993;-87
2022/03/14 03:16:30;;;;;;;29.87;15.15;;;;;;;-5.27;60.15;99170.55;1615983;89;21077;-86
2022/03/14 03:18:57;;;;;;;27.42;13.70;;;;;;;-5.32;60.46;99174.20;1623744;88;21016;-86
2022/03/14 03:21:26;;;;;;;28.50;13.98;;;;;;;-5.36;60.54;99181.30;1625950;88;21085;-87
2022/03/14 03:23:53;;;;;;;27.00;14.10;;;;;;;-5.47;62.00;99184.20;1636338;88;21044;-86
2022/03/14 03:26:21;;;;;;;33.18;14.38;;;;;;;-5.53;60.61;99181.27;1636244;88;21466;-86
2022/03/14 03:28:48;;;;;;;31.50;15.30;;;;;;;-5.59;62.41;99183.52;1636246;88;21072;-87
2022/03/14 03:31:20;;;;;;;30.43;13.78;;;;;;;-5.66;62.14;99186.59;1638196;88;20977;-88
2022/03/14 03:33:50;;;;;;;29.60;13.32;;;;;;;-5.70;60.73;99181.64;1648998;86;21040;-87
2022/03/14 03:36:18;;;;;;;28.98;13.85;;;;;;;-5.77;63.09;99188.16;1664762;86;21092;-87
2022/03/14 03:38:44;;;;;;;31.25;14.28;;;;;;;-5.80;64.20;99194.47;1664718;86;21060;-87
2022/03/14 03:41:12;;;;;;;28.60;14.13;;;;;;;-5.83;62.14;99192.61;1664618;86;21043;-87
2022/03/14 03:43:39;;;;;;;33.67;14.47;;;;;;;-5.79;61.28;99197.53;1664905;86;21079;-87
2022/03/14 03:46:06;;;;;;;31.07;14.73;;;;;;;-5.80;61.30;99192.27;1645599;86;21119;-86
2022/03/14 03:48:33;;;;;;;31.35;13.75;;;;;;;-5.78;61.13;99204.89;1664804;86;21068;-86
2022/03/14 03:51:00;;;;;;;30.90;13.75;;;;;;;-5.81;61.25;99203.02;1664914;86;21028;-86
2022/03/14 03:53:27;;;;;;;29.25;13.40;;;;;;;-5.83;61.12;99210.68;1664950;86;21527;-87
2022/03/14 03:55:53;;;;;;;29.35;14.55;;;;;;;-5.85;61.00;99210.98;1664915;86;21052;-87
2022/03/14 03:58:22;;;;;;;26.52;13.00;;;;;;;-5.91;61.30;99207.16;1664726;85;21048;-87
2022/03/14 04:00:51;;;;;;;29.95;12.23;;;;;;;-5.93;61.03;99208.78;1664809;86;21048;-88
2022/03/14 04:03:20;;;;;;;28.35;12.80;;;;;;;-5.90;60.95;99212.42;1664918;86;21462;-87
2022/03/14 04:05:48;;;;;;;28.40;12.50;;;;;;;-5.86;60.84;99219.95;1665276;86;21434;-87
2022/03/14 04:08:14;;;;;;;29.45;14.40;;;;;;;-5.84;61.67;99224.79;1664602;86;21060;-87
2022/03/14 04:10:43;;;;;;;28.05;12.95;;;;;;;-5.87;62.60;99227.19;1664669;86;21063;-88
2022/03/14 04:13:13;;;;;;;27.20;13.48;;;;;;;-5.97;64.24;99220.22;1664554;86;21033;-88
2022/03/14 04:15:51;;;;;;;26.23;12.20;;;;;;;-5.96;62.05;99228.47;1664553;86;21146;-87
2022/03/14 04:18:14;;;;;;;26.93;13.20;;;;;;;-6.00;61.75;99226.52;1662576;86;21088;-87
2022/03/14 04:20:41;;;;;;;25.75;13.55;;;;;;;-5.99;61.67;99233.84;1664871;86;21020;-87
2022/03/14 04:23:08;;;;;;;28.15;12.78;;;;;;;-5.95;61.83;99238.37;1664820;86;21032;-88
2022/03/14 04:25:35;;;;;;;29.92;15.03;;;;;;;-5.98;61.59;99240.81;1665143;86;21556;-88
2022/03/14 04:28:04;;;;;;;34.78;14.87;;;;;;;-5.94;62.01;99240.15;1664311;85;21148;-86
2022/03/14 04:30:31;;;;;;;27.93;12.60;;;;;;;-5.97;61.90;99235.70;1664589;86;21115;-86
2022/03/14 04:32:58;;;;;;;27.55;13.30;;;;;;;-5.95;61.81;99235.80;1664735;86;21451;-86
2022/03/14 04:35:24;;;;;;;28.07;13.78;;;;;;;-5.93;61.78;99234.59;1671453;86;21037;-85
2022/03/14 04:37:51;;;;;;;26.97;13.35;;;;;;;-5.96;61.59;99237.89;1671524;86;21104;-87
2022/03/14 04:40:17;;;;;;;30.85;14.20;;;;;;;-5.94;61.89;99244.45;1671658;86;21498;-86
2022/03/14 04:42:44;;;;;;;31.17;14.18;;;;;;;-5.97;61.76;99251.19;1671663;86;21427;-87
2022/03/14 04:45:11;;;;;;;30.08;13.25;;;;;;;-5.95;61.42;99248.70;1641456;87;21079;-86
2022/03/14 04:47:39;;;;;;;31.10;12.73;;;;;;;-5.91;61.75;99250.66;1673878;86;21096;-86
2022/03/14 04:50:07;;;;;;;23.38;13.08;;;;;;;-5.87;61.84;99247.84;1673853;86;21080;-86
2022/03/14 04:52:34;;;;;;;28.02;12.85;;;;;;;-5.90;64.32;99248.56;1674202;86;20965;-87
2022/03/14 04:55:02;;;;;;;31.37;13.32;;;;;;;-6.03;64.56;99250.02;1674140;86;21438;-87
2022/03/14 04:57:29;;;;;;;28.83;13.43;;;;;;;-6.10;64.57;99256.09;1674040;86;21111;-86
2022/03/14 04:59:55;;;;;;;31.27;14.40;;;;;;;-6.11;63.52;99256.00;1674376;86;21063;-86
2022/03/14 05:02:23;;;;;;;29.52;14.03;;;;;;;-6.15;64.21;99260.11;1674288;86;21398;-86
2022/03/14 05:04:52;;;;;;;32.23;14.33;;;;;;;-6.10;63.34;99261.68;1673846;86;21087;-86
2022/03/14 05:07:19;;;;;;;28.52;13.25;;;;;;;-6.07;62.78;99263.13;1674053;86;21044;-85
2022/03/14 05:09:46;;;;;;;28.25;12.78;;;;;;;-6.02;62.47;99267.24;1674296;86;21028;-86
2022/03/14 05:12:13;;;;;;;30.70;14.23;;;;;;;-5.98;62.65;99268.78;1674280;86;21080;-87
2022/03/14 05:14:40;;;;;;;30.70;13.70;;;;;;;-5.99;62.33;99268.30;1674316;86;21064;-87
2022/03/14 05:17:10;;;;;;;29.30;13.85;;;;;;;-5.93;62.23;99274.23;1674256;86;21560;-87
2022/03/14 05:19:39;;;;;;;27.77;12.95;;;;;;;-5.90;62.15;99272.22;1674170;86;21095;-87
2022/03/14 05:22:06;;;;;;;29.67;14.03;;;;;;;-5.87;62.47;99281.02;1674104;86;21020;-87
2022/03/14 05:24:32;;;;;;;28.05;13.68;;;;;;;-5.85;62.11;99284.98;1674042;86;21076;-87
2022/03/14 05:26:59;;;;;;;32.03;14.53;;;;;;;-5.86;62.13;99289.25;1673685;86;21036;-88
2022/03/14 05:29:27;;;;;;;32.45;14.10;;;;;;;-5.84;63.55;99284.17;1674069;86;21027;-88
2022/03/14 05:31:53;;;;;;;28.30;13.62;;;;;;;-5.81;62.50;99292.50;1673910;86;21036;-87
2022/03/14 05:34:20;;;;;;;39.30;15.85;;;;;;;-5.78;62.53;99293.55;1687097;84;21500;-88
2022/03/14 05:36:47;;;;;;;39.88;17.32;;;;;;;-5.75;62.40;99296.70;1670443;86;21080;-88
2022/03/14 05:39:13;;;;;;;34.38;16.42;;;;;;;-5.74;62.26;99292.02;1704103;84;21512;-88
2022/03/14 05:41:40;;;;;;;37.53;16.40;;;;;;;-5.70;63.32;99295.27;1670261;86;21032;-88
2022/03/14 05:44:09;;;;;;;36.90;16.07;;;;;;;-5.63;62.39;99299.09;1676947;85;21009;-88
2022/03/14 05:46:36;;;;;;;34.00;16.35;;;;;;;-5.53;62.11;99297.52;1680033;84;21434;-88
2022/03/14 05:49:04;;;;;;;37.83;16.55;;;;;;;-5.46;62.09;99302.23;1622008;87;21475;-87
2022/03/14 05:51:36;;;;;;;43.83;17.70;;;;;;;-5.41;61.90;99305.05;1703894;84;21032;-86
2022/03/14 05:54:02;;;;;;;41.10;17.87;;;;;;;-5.37;61.72;99309.59;1675552;84;21047;-86
2022/03/14 05:56:29;;;;;;;40.43;18.55;;;;;;;-5.36;61.65;99311.78;1704968;83;21471;-85
2022/03/14 05:58:57;;;;;;;37.58;16.90;;;;;;;-5.30;61.92;99310.44;1724125;83;20984;-87
2022/03/14 06:01:24;;;;;;;33.75;15.98;;;;;;;-5.25;61.56;99313.26;1724958;83;21050;-86
2022/03/14 06:03:53;;;;;;;37.63;17.23;;;;;;;-5.19;61.52;99317.47;1697452;83;21031;-87
2022/03/14 06:06:20;;;;;;;37.20;16.37;;;;;;;-5.13;61.22;99327.65;1721452;83;21004;-86
2022/03/14 06:08:52;;;;;;;33.50;16.87;;;;;;;-5.07;61.21;99329.30;1718031;83;21371;-86
2022/03/14 06:11:20;;;;;;;34.95;16.12;;;;;;;-4.98;61.26;99319.42;1715637;83;21059;-86
2022/03/14 06:13:56;;;;;;;40.15;17.27;;;;;;;-4.91;61.76;99326.72;1735157;83;21445;-86
2022/03/14 06:16:23;;;;;;;36.75;16.62;;;;;;;-4.83;61.38;99328.42;1686013;84;21024;-86
2022/03/14 06:18:50;;;;;;;37.00;16.65;;;;;;;-4.77;62.27;99324.00;1730102;83;21332;-85
2022/03/14 06:21:17;;;;;;;38.63;16.77;;;;;;;-4.69;61.83;99323.98;1727595;83;21000;-87
2022/03/14 06:23:44;;;;;;;33.10;17.05;;;;;;;-4.61;61.32;99331.27;1724651;83;21031;-85
2022/03/14 06:26:11;;;;;;;37.45;15.45;;;;;;;-4.53;61.10;99332.58;1670236;86;21016;-86
2022/03/14 06:28:37;;;;;;;36.40;16.20;;;;;;;-4.41;61.11;99332.30;1704021;84;21502;-86
2022/03/14 06:31:04;;;;;;;31.25;14.68;;;;;;;-4.34;60.93;99327.94;1713410;83;20996;-87
2022/03/14 06:33:30;;;;;;;35.92;15.43;;;;;;;-4.28;60.83;99328.24;1726992;83;20980;-88
2022/03/14 06:35:57;;;;;;;40.05;15.90;;;;;;;-4.16;60.62;99334.45;1707963;83;21403;-87
2022/03/14 06:38:24;;;;;;;33.30;15.08;;;;;;;-4.07;60.75;99335.74;1687714;84;21044;-87
2022/03/14 06:40:50;;;;;;;29.37;14.30;;;;;;;-3.95;60.34;99334.19;1696557;83;21078;-86
2022/03/14 06:43:21;;;;;;;36.77;17.37;;;;;;;-3.89;60.16;99330.20;1723778;83;21024;-86
2022/03/14 06:45:47;;;;;;;32.55;14.60;;;;;;;-3.80;60.13;99336.63;1723674;83;21040;-87
2022/03/14 06:48:15;;;;;;;27.05;14.43;;;;;;;-3.67;60.00;99327.36;1693192;83;20989;-87
2022/03/14 06:50:42;;;;;;;30.85;14.23;;;;;;;-3.61;59.76;99338.02;1691126;84;21013;-87
2022/03/14 06:53:09;;;;;;;32.28;15.18;;;;;;;-3.51;59.54;99326.80;1688630;85;21051;-86
2022/03/14 06:55:36;;;;;;;29.98;14.43;;;;;;;-3.42;59.49;99330.23;1690988;84;21489;-87
2022/03/14 06:58:03;;;;;;;35.00;14.75;;;;;;;-3.35;59.29;99340.11;1694410;84;20997;-88
2022/03/14 07:00:32;;;;;;;28.87;14.15;;;;;;;-3.26;59.02;99339.25;1661994;86;20993;-86
2022/03/14 07:02:58;;;;;;;28.83;14.15;;;;;;;-3.20;58.85;99340.83;1667672;86;20989;-84
2022/03/14 07:05:26;;;;;;;30.48;14.15;;;;;;;-3.11;58.69;99345.98;1681338;85;21100;-86
2022/03/14 07:07:54;;;;;;;26.80;14.13;;;;;;;-2.99;58.48;99341.78;1683327;84;20952;-87
2022/03/14 07:10:24;;;;;;;23.42;12.78;;;;;;;-2.89;58.34;99341.78;1710452;83;21060;-86
2022/03/14 07:12:50;;;;;;;36.17;14.35;;;;;;;-2.77;58.03;99346.64;1713311;83;21414;-83
2022/03/14 07:15:21;;;;;;;24.87;12.30;;;;;;;-2.66;57.81;99349.34;1692431;83;21054;-85
2022/03/14 07:17:50;;;;;;;24.18;11.75;;;;;;;-2.58;57.57;99350.55;1698180;83;20992;-85
2022/03/14 07:20:19;;;;;;;47.27;31.40;;;;;;;-2.45;57.29;99351.98;1709765;84;21577;-87
2022/03/14 07:22:54;;;;;;;25.37;13.95;;;;;;;-2.35;56.85;99355.89;1711064;84;21512;-85
2022/03/14 07:25:26;;;;;;;;;;;;;;;-2.24;56.58;99356.78;1713494;84;21087;-86
2022/03/14 07:27:59;;;;;;;19.45;10.20;;;;;;;-2.10;56.40;99362.16;1711376;84;20346;-88
2022/03/14 07:30:26;;;;;;;16.83;9.70;;;;;;;-1.99;55.21;99358.31;1705030;84;21057;-86
2022/03/14 07:32:53;;;;;;;22.62;12.07;;;;;;;-1.84;53.81;99362.81;1698869;84;20954;-87
2022/03/14 07:35:21;;;;;;;18.62;10.13;;;;;;;-1.70;52.90;99364.69;1698628;84;21106;-87
2022/03/14 07:37:48;;;;;;;22.27;11.45;;;;;;;-1.62;51.93;99360.27;1698826;84;21431;-87
2022/03/14 07:40:15;;;;;;;21.00;11.25;;;;;;;-1.50;53.01;99359.89;1698899;84;20981;-87
2022/03/14 07:42:49;;;;;;;29.02;11.43;;;;;;;-1.38;52.32;99357.30;1699070;84;21458;-88
2022/03/14 07:45:21;;;;;;;27.37;11.97;;;;;;;-1.28;52.05;99354.28;1699203;84;21482;-88
2022/03/14 07:47:49;;;;;;;22.37;11.88;;;;;;;-1.14;52.67;99356.52;1699010;84;20966;-87
2022/03/14 07:50:17;;;;;;;21.62;11.15;;;;;;;-1.01;52.65;99362.69;1699074;84;21415;-87
2022/03/14 07:52:45;;;;;;;22.82;11.57;;;;;;;-0.89;52.48;99350.97;1699025;84;21050;-88
2022/03/14 07:55:12;;;;;;;25.55;12.63;;;;;;;-0.77;52.09;99355.35;1698756;84;21395;-87
2022/03/14 07:57:40;;;;;;;25.97;12.55;;;;;;;-0.64;52.19;99354.50;1664911;86;21690;-87
2022/03/14 08:00:14;;;;;;;27.32;12.18;;;;;;;-0.56;52.01;99352.67;1698400;84;21004;-87
2022/03/14 08:02:49;;;;;;;22.90;11.73;;;;;;;-0.46;50.23;99355.19;1665006;86;21037;-87
2022/03/14 08:05:23;;;;;;;22.62;12.75;;;;;;;-0.29;51.17;99362.75;1698544;84;21043;-87
2022/03/14 08:07:47;;;;;;;31.48;14.07;;;;;;;-0.19;49.97;99362.25;1664323;86;21168;-87
2022/03/14 08:10:17;;;;;;;33.28;15.65;;;;;;;-0.05;49.55;99361.42;1698674;84;21402;-87
2022/03/14 08:12:52;;;;;;;33.38;15.93;;;;;;;0.10;48.53;99350.66;1664957;86;21112;-87
2022/03/14 08:15:31;;;;;;;31.13;17.00;;;;;;;0.22;50.10;99355.81;1698713;84;21051;-87
2022/03/14 08:18:01;;;;;;;37.23;17.92;;;;;;;0.33;49.67;99356.19;1698594;84;21047;-87
2022/03/14 08:20:29;;;;;;;36.70;18.50;;;;;;;0.50;49.37;99357.62;1698728;84;20986;-88
2022/03/14 08:22:59;;;;;;;38.83;18.57;;;;;;;0.65;48.84;99346.81;1699113;84;21495;-86
2022/03/14 08:25:31;;;;;;;30.92;14.20;;;;;;;0.81;47.33;99350.31;1699059;84;21041;-88
2022/03/14 08:27:58;;;;;;;31.73;17.52;;;;;;;0.96;46.52;99352.53;1698962;84;21009;-88
2022/03/14 08:30:25;;;;;;;31.95;17.52;;;;;;;1.05;46.53;99347.16;1699043;84;21009;-88
2022/03/14 08:32:55;;;;;;;34.40;19.95;;;;;;;1.15;47.18;99348.34;1699090;84;21387;-87
2022/03/14 08:35:22;;;;;;;35.15;19.98;;;;;;;1.29;46.26;99351.80;1698870;84;21021;-89
2022/03/14 08:37:52;;;;;;;38.48;19.73;;;;;;;1.40;46.00;99339.92;1699034;84;21108;-88
2022/03/14 08:40:23;;;;;;;45.12;21.33;;;;;;;1.51;46.29;99344.57;1699066;84;20982;-86
2022/03/14 08:42:51;;;;;;;39.20;19.52;;;;;;;1.63;46.16;99346.25;1698962;84;21017;-87
2022/03/14 08:45:19;;;;;;;36.55;20.05;;;;;;;1.70;46.14;99343.36;1698931;84;21008;-88
2022/03/14 08:47:47;;;;;;;42.27;20.90;;;;;;;1.77;46.68;99341.80;1698612;84;21486;-88
2022/03/14 08:50:15;;;;;;;42.55;19.45;;;;;;;1.84;45.74;99345.06;1664924;86;21012;-88
2022/03/14 08:52:43;;;;;;;35.38;18.23;;;;;;;2.02;45.81;99342.47;1698470;84;21063;-87
2022/03/14 08:55:10;;;;;;;37.73;18.87;;;;;;;2.16;45.82;99347.64;1666635;84;21068;-87
2022/03/14 08:57:39;;;;;;;32.75;17.40;;;;;;;2.29;43.58;99348.88;1676982;85;21146;-91
2022/03/14 09:00:11;;;;;;;37.08;17.42;;;;;;;2.43;43.92;99340.47;1658620;86;21044;-87
2022/03/14 09:02:43;;;;;;;39.08;16.12;;;;;;;2.54;44.47;99345.56;1642054;86;21097;-89
2022/03/14 09:05:13;;;;;;;32.80;16.12;;;;;;;2.61;44.41;99347.47;1639241;86;21070;-88
2022/03/14 09:07:41;;;;;;;30.90;16.50;;;;;;;2.70;44.59;99351.17;1660409;86;21048;-89
2022/03/14 09:10:12;;;;;;;30.27;15.68;;;;;;;2.77;43.26;99347.42;1658831;85;20953;-89
2022/03/14 09:12:43;;;;;;;31.00;14.10;;;;;;;2.92;41.12;99346.02;1658182;85;21029;-88
2022/03/14 09:15:15;;;;;;;27.93;13.98;;;;;;;3.02;41.33;99340.14;1676946;85;21009;-90
2022/03/14 09:17:59;;;;;;;22.80;13.05;;;;;;;3.12;42.23;99342.97;1633109;85;21844;-89
2022/03/14 09:20:28;;;;;;;25.08;14.23;;;;;;;3.21;42.07;99340.55;1669764;85;21072;-91
2022/03/14 09:22:56;;;;;;;30.55;13.48;;;;;;;3.30;42.18;99344.69;1666878;85;21291;-90
2022/03/14 09:25:25;;;;;;;26.80;14.35;;;;;;;3.34;41.92;99340.39;1658206;86;21381;-90
2022/03/14 09:27:56;;;;;;;23.90;12.93;;;;;;;3.41;42.16;99338.34;1660549;86;21013;-90
2022/03/14 09:30:24;;;;;;;25.90;12.47;;;;;;;3.56;40.15;99344.76;1662540;85;21019;-90
2022/03/14 09:32:53;;;;;;;23.07;13.35;;;;;;;3.68;40.95;99338.47;1656780;85;21489;-92
2022/03/14 09:35:23;;;;;;;22.50;12.88;;;;;;;3.79;40.41;99346.53;1659135;85;21033;-91
2022/03/14 09:37:50;;;;;;;32.17;14.07;;;;;;;3.86;40.25;99347.53;1653325;86;21470;-91
2022/03/14 09:40:21;;;;;;;24.12;13.80;;;;;;;3.93;39.29;99343.30;1652267;87;21073;-92
2022/03/14 09:42:55;;;;;;;25.80;14.50;;;;;;;4.08;40.26;99340.95;1651284;87;21037;-90
2022/03/14 09:45:22;;;;;;;36.42;19.40;;;;;;;4.24;39.43;99332.08;1652915;86;21474;-91
2022/03/14 09:47:54;;;;;;;26.62;14.23;;;;;;;4.32;38.98;99330.45;1652120;87;21122;-92
2022/03/14 09:50:37;;;;;;;24.52;14.43;;;;;;;4.51;37.39;99334.70;1647354;86;20992;-80
2022/03/14 09:53:11;;;;;;;25.62;13.83;;;;;;;4.72;36.73;99328.92;1656611;86;21044;-79
2022/03/14 09:55:42;;;;;;;24.67;14.18;;;;;;;4.84;38.24;99320.77;1652031;86;21040;-80
2022/03/14 09:58:18;;;;;;;26.55;15.38;;;;;;;4.98;36.57;99319.23;1688222;84;21189;-80
2022/03/14 10:00:47;;;;;;;23.45;13.75;;;;;;;5.12;37.37;99325.13;1708726;83;21398;-81
2022/03/14 10:03:15;;;;;;;27.07;12.68;;;;;;;5.23;36.41;99313.00;1699505;84;21004;-79
2022/03/14 10:05:44;;;;;;;27.13;13.48;;;;;;;5.36;36.12;99311.86;1690709;83;21064;-81
2022/03/14 10:08:12;;;;;;;25.90;13.55;;;;;;;5.51;36.35;99312.05;1702189;83;21088;-80
2022/03/14 10:10:39;;;;;;;24.90;13.08;;;;;;;5.66;33.99;99311.33;1691136;84;21390;-79
2022/03/14 10:13:07;;;;;;;23.83;13.40;;;;;;;5.85;34.16;99312.00;1688496;85;21036;-81
2022/03/14 10:15:40;;;;;;;21.73;14.85;;;;;;;6.00;35.99;99321.78;1687032;85;20996;-81
2022/03/14 10:18:15;;;;;;;33.83;18.90;;;;;;;6.07;35.87;99324.52;1692444;85;21040;-82
2022/03/14 10:21:12;;;;;;;23.57;14.15;;;;;;;6.20;36.11;99323.34;1693561;84;21004;-81
2022/03/14 10:23:41;;;;;;;21.62;13.43;;;;;;;6.30;35.56;99320.35;1690451;85;21063;-81
2022/03/14 10:26:16;;;;;;;23.40;13.88;;;;;;;6.41;33.36;99320.03;1688042;84;21434;-79
2022/03/14 10:28:49;;;;;;;24.75;14.00;;;;;;;6.49;34.34;99320.09;1688297;85;21052;-80
2022/03/14 10:31:15;;;;;;;25.55;14.38;;;;;;;6.63;34.80;99307.45;1692693;84;22248;-82
2022/03/14 10:33:42;;;;;;;25.32;15.18;;;;;;;6.77;33.57;99307.11;1696132;84;20965;-82
2022/03/14 10:36:11;;;;;;;26.60;14.60;;;;;;;6.92;34.46;99310.30;1710251;83;20969;-81
2022/03/14 10:38:43;;;;;;;29.48;15.32;;;;;;;7.07;31.82;99308.64;1717368;83;21422;-81
2022/03/14 10:41:18;;;;;;;26.23;14.78;;;;;;;7.11;31.32;99306.02;1717683;83;20993;-82
2022/03/14 10:43:42;;;;;;;26.77;15.53;;;;;;;7.22;33.08;99303.45;1708806;83;21048;-83
2022/03/14 10:46:09;;;;;;;22.48;13.55;;;;;;;7.42;33.46;99301.80;1715679;83;21397;-82
2022/03/14 10:48:43;;;;;;;23.55;14.90;;;;;;;7.69;33.26;99302.34;1713273;83;20981;-83
2022/03/14 10:51:14;;;;;;;26.42;16.17;;;;;;;8.50;32.73;99295.84;1717099;83;21064;-82
2022/03/14 10:53:46;;;;;;;25.72;14.13;;;;;;;9.75;31.82;99287.60;1709867;83;21034;-82
2022/03/14 10:56:17;;;;;;;23.62;14.90;;;;;;;10.94;29.37;99284.97;1712651;83;21016;-81
2022/03/14 10:58:43;;;;;;;20.05;13.05;;;;;;;11.99;28.75;99283.23;1709623;83;21040;-81
2022/03/14 11:01:12;;;;;;;19.77;13.45;;;;;;;12.87;23.94;99276.10;1714100;83;20983;-82
2022/03/14 11:03:42;;;;;;;20.43;13.25;;;;;;;13.80;26.51;99270.28;1706844;83;21036;-80
2022/03/14 11:06:14;;;;;;;24.75;14.10;;;;;;;14.65;22.54;99256.69;1703396;83;21017;-83
2022/03/14 11:08:48;;;;;;;;;;;;;;;15.56;23.78;99267.59;1720809;83;21032;-82
2022/03/14 11:11:22;;;;;;;20.32;14.55;;;;;;;16.10;20.25;99255.73;1712821;83;20105;-81
2022/03/14 11:13:58;;;;;;;20.30;14.93;;;;;;;16.44;20.94;99249.28;1712247;83;21037;-83
2022/03/14 11:16:26;;;;;;;18.98;14.05;;;;;;;16.46;18.13;99246.11;1710636;83;20968;-83
2022/03/14 11:18:54;;;;;;;15.75;13.03;;;;;;;17.43;21.50;99240.03;1706978;83;21084;-83
2022/03/14 11:21:27;;;;;;;21.07;15.25;;;;;;;17.10;17.36;99244.38;1711040;83;21000;-83
2022/03/14 11:23:55;;;;;;;17.30;13.68;;;;;;;18.14;18.33;99239.11;1723749;83;21016;-82
2022/03/14 11:26:25;;;;;;;21.05;15.40;;;;;;;18.68;17.61;99229.75;1699489;83;20991;-83